PTMAX SBCN-SBGO
Flight info
| Callsign | PTMAX |
|---|---|
| Flight time | 0h 27m |
| Altitude | 5500 |
| Route | DCT 165823S0485711W REA DCT |
| Aircraft | SR22/L-SDGRY/S |
Departure
| Time | 2026-05-05 19:32 |
|---|---|
| Airport | Nelson Ribeiro Guimarães Airport (SBCN) |
Arrival
| Time | 2026-05-05 20:00 |
|---|---|
| Airport | Santa Genoveva International Airport (SBGO) |
| Time | Latitude | Longitude | Altitude | Speed | Heading |
|---|---|---|---|---|---|
| 2026-05-05 19:22 | -17.72549 | -48.61326 | 2305 ft | 0 kts | 124° |
| 2026-05-05 19:29 | -17.72549 | -48.61324 | 2300 ft | 2 kts | 75° |
| 2026-05-05 19:29 | -17.72544 | -48.61341 | 2302 ft | 6 kts | 247° |
| 2026-05-05 19:30 | -17.72580 | -48.61349 | 2302 ft | 6 kts | 154° |
| 2026-05-05 19:30 | -17.72609 | -48.61378 | 2302 ft | 8 kts | 250° |
| 2026-05-05 19:30 | -17.72648 | -48.61424 | 2305 ft | 10 kts | 172° |
| 2026-05-05 19:30 | -17.72707 | -48.61398 | 2304 ft | 8 kts | 159° |
| 2026-05-05 19:31 | -17.72751 | -48.61378 | 2304 ft | 6 kts | 154° |
| 2026-05-05 19:31 | -17.72784 | -48.61363 | 2303 ft | 10 kts | 155° |
| 2026-05-05 19:31 | -17.72676 | -48.61055 | 2296 ft | 80 kts | 64° |
| 2026-05-05 19:31 | -17.72384 | -48.60388 | 2371 ft | 112 kts | 67° |
| 2026-05-05 19:32 | -17.72025 | -48.59605 | 2510 ft | 130 kts | 66° |
| 2026-05-05 19:32 | -17.71582 | -48.58723 | 2633 ft | 145 kts | 49° |
| 2026-05-05 19:32 | -17.70631 | -48.58345 | 2756 ft | 160 kts | 360° |
| 2026-05-05 19:32 | -17.69588 | -48.58815 | 3021 ft | 165 kts | 332° |
| 2026-05-05 19:33 | -17.68612 | -48.59444 | 3354 ft | 166 kts | 331° |
| 2026-05-05 19:33 | -17.67631 | -48.60082 | 3641 ft | 168 kts | 332° |
| 2026-05-05 19:33 | -17.66632 | -48.60719 | 3915 ft | 167 kts | 332° |
| 2026-05-05 19:33 | -17.65630 | -48.61352 | 4204 ft | 167 kts | 332° |
| 2026-05-05 19:34 | -17.64966 | -48.61773 | 4368 ft | 168 kts | 332° |
| 2026-05-05 19:34 | -17.63962 | -48.62406 | 4598 ft | 168 kts | 332° |
| 2026-05-05 19:34 | -17.62629 | -48.63249 | 4886 ft | 169 kts | 332° |
| 2026-05-05 19:35 | -17.60944 | -48.64316 | 5218 ft | 170 kts | 332° |
| 2026-05-05 19:35 | -17.59597 | -48.65166 | 5510 ft | 171 kts | 332° |
| 2026-05-05 19:35 | -17.58909 | -48.65601 | 5657 ft | 171 kts | 332° |
| 2026-05-05 19:35 | -17.57887 | -48.66250 | 5886 ft | 172 kts | 332° |
| 2026-05-05 19:36 | -17.56861 | -48.66901 | 6118 ft | 172 kts | 332° |
| 2026-05-05 19:36 | -17.55834 | -48.67555 | 6365 ft | 173 kts | 332° |
| 2026-05-05 19:36 | -17.54795 | -48.68220 | 6493 ft | 180 kts | 332° |
| 2026-05-05 19:36 | -17.53686 | -48.68920 | 6504 ft | 190 kts | 332° |
| 2026-05-05 19:37 | -17.52550 | -48.69639 | 6505 ft | 195 kts | 332° |
| 2026-05-05 19:37 | -17.51379 | -48.70384 | 6506 ft | 198 kts | 332° |
| 2026-05-05 19:37 | -17.50189 | -48.71138 | 6509 ft | 200 kts | 332° |
| 2026-05-05 19:37 | -17.49010 | -48.71889 | 6507 ft | 201 kts | 332° |
| 2026-05-05 19:38 | -17.47807 | -48.72641 | 6510 ft | 201 kts | 332° |
| 2026-05-05 19:38 | -17.46606 | -48.73396 | 6504 ft | 202 kts | 332° |
| 2026-05-05 19:38 | -17.45399 | -48.74151 | 6507 ft | 202 kts | 332° |
| 2026-05-05 19:38 | -17.44187 | -48.74892 | 6504 ft | 201 kts | 335° |
| 2026-05-05 19:39 | -17.42935 | -48.75555 | 6502 ft | 201 kts | 336° |
| 2026-05-05 19:39 | -17.41677 | -48.76203 | 6505 ft | 201 kts | 337° |
| 2026-05-05 19:39 | -17.40428 | -48.76853 | 6506 ft | 200 kts | 337° |
| 2026-05-05 19:39 | -17.39200 | -48.77494 | 6503 ft | 199 kts | 336° |
| 2026-05-05 19:40 | -17.37958 | -48.78131 | 6504 ft | 199 kts | 337° |
| 2026-05-05 19:40 | -17.36716 | -48.78770 | 6502 ft | 199 kts | 337° |
| 2026-05-05 19:40 | -17.35467 | -48.79409 | 6504 ft | 200 kts | 337° |
| 2026-05-05 19:40 | -17.34212 | -48.80046 | 6497 ft | 201 kts | 337° |
| 2026-05-05 19:41 | -17.32956 | -48.80693 | 6501 ft | 200 kts | 337° |
| 2026-05-05 19:41 | -17.31712 | -48.81344 | 6499 ft | 200 kts | 336° |
| 2026-05-05 19:41 | -17.30469 | -48.81993 | 6500 ft | 201 kts | 337° |
| 2026-05-05 19:41 | -17.29213 | -48.82643 | 6501 ft | 201 kts | 337° |
| 2026-05-05 19:42 | -17.27970 | -48.83292 | 6503 ft | 202 kts | 337° |
| 2026-05-05 19:42 | -17.26710 | -48.83940 | 6504 ft | 201 kts | 338° |
| 2026-05-05 19:42 | -17.25422 | -48.84517 | 6500 ft | 200 kts | 340° |
| 2026-05-05 19:42 | -17.24132 | -48.85076 | 6494 ft | 199 kts | 341° |
| 2026-05-05 19:43 | -17.22865 | -48.85635 | 6499 ft | 195 kts | 340° |
| 2026-05-05 19:43 | -17.21645 | -48.86160 | 6493 ft | 187 kts | 342° |
| 2026-05-05 19:43 | -17.20466 | -48.86668 | 6483 ft | 178 kts | 341° |
| 2026-05-05 19:43 | -17.19337 | -48.87166 | 6489 ft | 174 kts | 341° |
| 2026-05-05 19:44 | -17.18241 | -48.87646 | 6488 ft | 172 kts | 341° |
| 2026-05-05 19:44 | -17.17139 | -48.88128 | 6489 ft | 171 kts | 341° |
| 2026-05-05 19:44 | -17.16040 | -48.88612 | 6488 ft | 169 kts | 341° |
| 2026-05-05 19:44 | -17.14972 | -48.89083 | 6493 ft | 164 kts | 341° |
| 2026-05-05 19:45 | -17.13921 | -48.89524 | 6488 ft | 165 kts | 343° |
| 2026-05-05 19:45 | -17.12844 | -48.89931 | 6490 ft | 164 kts | 344° |
| 2026-05-05 19:45 | -17.11771 | -48.90335 | 6491 ft | 164 kts | 344° |
| 2026-05-05 19:45 | -17.10693 | -48.90739 | 6491 ft | 164 kts | 345° |
| 2026-05-05 19:46 | -17.09630 | -48.91135 | 6492 ft | 164 kts | 344° |
| 2026-05-05 19:46 | -17.08547 | -48.91547 | 6491 ft | 165 kts | 344° |
| 2026-05-05 19:46 | -17.07460 | -48.91964 | 6494 ft | 166 kts | 344° |
| 2026-05-05 19:46 | -17.06368 | -48.92344 | 6491 ft | 165 kts | 347° |
| 2026-05-05 19:47 | -17.05280 | -48.92686 | 6493 ft | 165 kts | 347° |
| 2026-05-05 19:47 | -17.04179 | -48.93034 | 6493 ft | 165 kts | 347° |
| 2026-05-05 19:47 | -17.03447 | -48.93266 | 6492 ft | 166 kts | 347° |
| 2026-05-05 19:47 | -17.01978 | -48.93731 | 6497 ft | 165 kts | 347° |
| 2026-05-05 19:48 | -17.00879 | -48.94084 | 6497 ft | 167 kts | 347° |
| 2026-05-05 19:48 | -16.99757 | -48.94439 | 6495 ft | 169 kts | 347° |
| 2026-05-05 19:48 | -16.98635 | -48.94796 | 6505 ft | 168 kts | 347° |
| 2026-05-05 19:48 | -16.97510 | -48.95153 | 6501 ft | 170 kts | 347° |
| 2026-05-05 19:49 | -16.96383 | -48.95540 | 6503 ft | 173 kts | 337° |
| 2026-05-05 19:49 | -16.95427 | -48.96286 | 6503 ft | 171 kts | 321° |
| 2026-05-05 19:49 | -16.94517 | -48.97108 | 6495 ft | 174 kts | 322° |
| 2026-05-05 19:49 | -16.93604 | -48.97923 | 6498 ft | 175 kts | 322° |
| 2026-05-05 19:50 | -16.92679 | -48.98754 | 6499 ft | 175 kts | 322° |
| 2026-05-05 19:50 | -16.91750 | -48.99587 | 6502 ft | 175 kts | 322° |
| 2026-05-05 19:50 | -16.90830 | -49.00411 | 6511 ft | 177 kts | 322° |
| 2026-05-05 19:50 | -16.89895 | -49.01249 | 6509 ft | 177 kts | 322° |
| 2026-05-05 19:51 | -16.88955 | -49.02088 | 6506 ft | 177 kts | 322° |
| 2026-05-05 19:51 | -16.88026 | -49.02919 | 6509 ft | 175 kts | 322° |
| 2026-05-05 19:51 | -16.87111 | -49.03740 | 6513 ft | 175 kts | 322° |
| 2026-05-05 19:51 | -16.86180 | -49.04568 | 6521 ft | 176 kts | 322° |
| 2026-05-05 19:52 | -16.85246 | -49.05398 | 6518 ft | 176 kts | 322° |
| 2026-05-05 19:52 | -16.84329 | -49.06219 | 6522 ft | 174 kts | 322° |
| 2026-05-05 19:52 | -16.83410 | -49.07047 | 6528 ft | 174 kts | 322° |
| 2026-05-05 19:52 | -16.82483 | -49.07871 | 6524 ft | 175 kts | 322° |
| 2026-05-05 19:53 | -16.81559 | -49.08695 | 6528 ft | 175 kts | 322° |
| 2026-05-05 19:53 | -16.80631 | -49.09520 | 6539 ft | 175 kts | 322° |
| 2026-05-05 19:53 | -16.79703 | -49.10347 | 6537 ft | 175 kts | 322° |
| 2026-05-05 19:53 | -16.78796 | -49.11156 | 6540 ft | 173 kts | 322° |
| 2026-05-05 19:54 | -16.77889 | -49.11961 | 6534 ft | 170 kts | 322° |
| 2026-05-05 19:54 | -16.76988 | -49.12762 | 6544 ft | 170 kts | 322° |
| 2026-05-05 19:54 | -16.76089 | -49.13562 | 6539 ft | 169 kts | 322° |
| 2026-05-05 19:54 | -16.75192 | -49.14360 | 6542 ft | 170 kts | 322° |
| 2026-05-05 19:55 | -16.74296 | -49.15156 | 6550 ft | 169 kts | 322° |
| 2026-05-05 19:55 | -16.73396 | -49.15957 | 6531 ft | 172 kts | 322° |
| 2026-05-05 19:55 | -16.72459 | -49.16785 | 6287 ft | 177 kts | 322° |
| 2026-05-05 19:55 | -16.71523 | -49.17613 | 6050 ft | 176 kts | 322° |
| 2026-05-05 19:56 | -16.70591 | -49.18442 | 5813 ft | 175 kts | 322° |
| 2026-05-05 19:56 | -16.69662 | -49.19271 | 5574 ft | 176 kts | 322° |
| 2026-05-05 19:56 | -16.68733 | -49.20102 | 5332 ft | 176 kts | 322° |
| 2026-05-05 19:56 | -16.67790 | -49.20934 | 5103 ft | 178 kts | 322° |
| 2026-05-05 19:57 | -16.66840 | -49.21773 | 4810 ft | 180 kts | 322° |
| 2026-05-05 19:57 | -16.65891 | -49.22616 | 4446 ft | 178 kts | 323° |
| 2026-05-05 19:57 | -16.64962 | -49.23438 | 4082 ft | 173 kts | 323° |
| 2026-05-05 19:57 | -16.64102 | -49.24298 | 3723 ft | 172 kts | 308° |
| 2026-05-05 19:58 | -16.63486 | -49.25307 | 3491 ft | 158 kts | 303° |
| 2026-05-05 19:58 | -16.62881 | -49.26178 | 3463 ft | 137 kts | 328° |
| 2026-05-05 19:58 | -16.62094 | -49.26289 | 3477 ft | 106 kts | 31° |
| 2026-05-05 19:58 | -16.61532 | -49.25896 | 3469 ft | 89 kts | 61° |
| 2026-05-05 19:59 | -16.61569 | -49.25308 | 3428 ft | 84 kts | 112° |
| 2026-05-05 19:59 | -16.61770 | -49.24733 | 3146 ft | 85 kts | 110° |
| 2026-05-05 19:59 | -16.62022 | -49.24167 | 2868 ft | 86 kts | 116° |
| 2026-05-05 19:59 | -16.62307 | -49.23656 | 2664 ft | 79 kts | 116° |
| 2026-05-05 20:00 | -16.62598 | -49.23171 | 2559 ft | 82 kts | 117° |
| 2026-05-05 20:00 | -16.62884 | -49.22661 | 2458 ft | 74 kts | 118° |
| 2026-05-05 20:00 | -16.63092 | -49.22285 | 2443 ft | 45 kts | 122° |
| 2026-05-05 20:00 | -16.63181 | -49.22215 | 2435 ft | 15 kts | 204° |
| 2026-05-05 20:01 | -16.63226 | -49.22240 | 2432 ft | 6 kts | 210° |
| 2026-05-05 20:01 | -16.63235 | -49.22245 | 2433 ft | 1 kts | 209° |
| 2026-05-05 20:01 | -16.63267 | -49.22263 | 2431 ft | 6 kts | 212° |
| 2026-05-05 20:01 | -16.63298 | -49.22282 | 2428 ft | 7 kts | 209° |
| 2026-05-05 20:02 | -16.63340 | -49.22313 | 2427 ft | 8 kts | 221° |
| 2026-05-05 20:02 | -16.63322 | -49.22346 | 2430 ft | 6 kts | 308° |
| 2026-05-05 20:02 | -16.63324 | -49.22358 | 2428 ft | 2 kts | 205° |
| 2026-05-05 20:02 | -16.63335 | -49.22364 | 2427 ft | 0 kts | 210° |